Time;durP1;ratioP1;P1;durP2;ratioP2;P2;SDS_P1;SDS_P2;PMS_P1;PMS_P2;Temp;Humidity;BMP_temperature;BMP_pressure;BME280_temperature;BME280_humidity;BME280_pressure;Samples;Min_cycle;Max_cycle;Signal;HPM_P1;HPM_P2
2023/04/21 00:00:55;;;;;;;5.47;3.30;;;9.10;96.40;;;;;;5020508;28;20052;-64
2023/04/21 00:03:26;;;;;;;6.35;3.05;;;9.10;96.60;;;;;;5031005;28;20475;-65
2023/04/21 00:05:55;;;;;;;5.40;3.45;;;9.10;96.70;;;;;;5029545;28;20057;-61
2023/04/21 00:08:20;;;;;;;3.10;2.80;;;9.10;96.80;;;;;;5030879;28;20476;-62
2023/04/21 00:10:46;;;;;;;4.45;2.67;;;9.10;96.80;;;;;;5030093;28;20073;-62
2023/04/21 00:13:12;;;;;;;5.80;3.10;;;9.10;96.90;;;;;;5030995;28;20091;-62
2023/04/21 00:15:38;;;;;;;5.22;2.97;;;9.10;96.80;;;;;;5033435;28;20034;-57
2023/04/21 00:18:05;;;;;;;5.82;3.58;;;9.10;96.90;;;;;;5039948;28;20368;-59
2023/04/21 00:20:31;;;;;;;5.50;2.92;;;9.10;96.80;;;;;;5035117;28;20068;-57
2023/04/21 00:22:57;;;;;;;7.13;3.45;;;9.10;96.60;;;;;;5028188;28;20129;-58
2023/04/21 00:25:24;;;;;;;4.28;3.10;;;9.20;96.60;;;;;;5037648;28;20471;-60
2023/04/21 00:27:50;;;;;;;7.13;3.22;;;9.20;96.60;;;;;;5035357;28;20426;-61
2023/04/21 00:30:16;;;;;;;4.00;2.83;;;9.10;96.30;;;;;;5034840;28;20442;-65
2023/04/21 00:32:42;;;;;;;3.78;2.90;;;9.10;96.20;;;;;;5032057;28;20057;-65
2023/04/21 00:35:11;;;;;;;5.00;2.58;;;9.10;96.20;;;;;;5032415;28;20033;-64
2023/04/21 00:37:37;;;;;;;5.22;2.90;;;9.10;96.30;;;;;;5046546;28;20489;-61
2023/04/21 00:40:04;;;;;;;5.65;3.28;;;9.10;96.40;;;;;;5025526;28;20034;-60
2023/04/21 00:42:30;;;;;;;7.03;2.83;;;9.10;96.30;;;;;;5036224;28;20144;-61
2023/04/21 00:44:56;;;;;;;5.38;2.90;;;9.10;96.30;;;;;;5032298;28;20140;-61
2023/04/21 00:47:22;;;;;;;4.90;2.80;;;9.10;96.20;;;;;;5044055;28;20025;-61
2023/04/21 00:49:47;;;;;;;7.50;3.28;;;9.20;96.20;;;;;;5032760;28;20069;-60
2023/04/21 00:52:16;;;;;;;5.90;3.55;;;9.10;96.10;;;;;;5041540;28;20115;-58
2023/04/21 00:54:42;;;;;;;4.13;2.63;;;9.10;96.20;;;;;;5035378;28;20144;-57
2023/04/21 00:57:09;;;;;;;4.63;2.70;;;9.20;96.20;;;;;;5019202;28;20034;-65
2023/04/21 00:59:35;;;;;;;7.65;3.03;;;9.10;96.20;;;;;;5038987;28;20133;-64
2023/04/21 01:02:01;;;;;;;7.15;3.15;;;9.10;96.20;;;;;;5024539;28;20128;-62
2023/04/21 01:04:27;;;;;;;4.82;3.00;;;9.10;96.20;;;;;;5017222;28;20261;-62
2023/04/21 01:06:53;;;;;;;5.13;3.00;;;9.10;96.30;;;;;;5026461;28;20045;-61
2023/04/21 01:09:20;;;;;;;4.50;2.80;;;9.10;96.40;;;;;;5035306;28;20373;-61
2023/04/21 01:12:02;;;;;;;4.90;3.08;;;9.10;96.50;;;;;;5037691;28;20063;-61
2023/04/21 01:14:28;;;;;;;5.30;2.92;;;9.10;96.40;;;;;;5027712;28;20291;-62
2023/04/21 01:16:55;;;;;;;4.75;3.05;;;9.00;96.50;;;;;;5035285;28;20026;-61
2023/04/21 01:19:21;;;;;;;2.90;2.58;;;9.00;96.70;;;;;;5039009;28;20025;-62
2023/04/21 01:21:48;;;;;;;4.85;2.75;;;9.00;96.80;;;;;;5035479;28;20045;-64
2023/04/21 01:24:14;;;;;;;3.70;2.72;;;9.00;96.90;;;;;;5033970;28;20386;-65
2023/04/21 01:26:40;;;;;;;5.60;2.47;;;9.00;97.10;;;;;;5036065;28;20056;-58
2023/04/21 01:29:05;;;;;;;5.07;3.00;;;9.00;97.20;;;;;;5033387;28;20026;-58
2023/04/21 01:31:31;;;;;;;6.18;2.90;;;9.00;97.20;;;;;;5036242;28;20033;-62
2023/04/21 01:33:57;;;;;;;3.97;2.97;;;9.00;97.20;;;;;;5038665;28;20128;-62
2023/04/21 01:36:22;;;;;;;7.93;3.20;;;9.00;97.20;;;;;;5032909;28;20041;-60
2023/04/21 01:38:48;;;;;;;5.55;2.85;;;9.00;97.40;;;;;;5030284;28;20045;-57
2023/04/21 01:41:14;;;;;;;6.07;2.60;;;9.00;97.60;;;;;;5034122;28;20095;-61
2023/04/21 01:43:39;;;;;;;4.75;2.70;;;9.00;97.70;;;;;;5047963;28;20060;-61
2023/04/21 01:46:05;;;;;;;2.90;2.63;;;9.00;98.00;;;;;;5036350;28;20022;-61
2023/04/21 01:48:31;;;;;;;6.75;2.88;;;9.00;98.30;;;;;;5034143;28;20095;-61
2023/04/21 01:50:56;;;;;;;4.75;2.92;;;9.00;98.50;;;;;;5041893;28;20463;-58
2023/04/21 01:53:22;;;;;;;5.13;2.78;;;8.90;98.70;;;;;;5041389;28;20076;-58
2023/04/21 01:55:48;;;;;;;6.18;3.33;;;9.00;98.50;;;;;;5035564;28;20439;-61
2023/04/21 01:58:13;;;;;;;4.30;2.97;;;8.90;98.50;;;;;;5030001;28;20032;-61
2023/04/21 02:00:39;;;;;;;4.47;3.10;;;8.90;98.70;;;;;;5036896;28;20030;-58
2023/04/21 02:03:05;;;;;;;3.53;2.78;;;8.90;98.90;;;;;;5039721;28;20037;-59
2023/04/21 02:05:31;;;;;;;5.72;3.17;;;8.90;99.10;;;;;;5024806;28;20033;-63
2023/04/21 02:07:56;;;;;;;3.85;2.65;;;8.90;99.10;;;;;;5040276;28;20029;-62
2023/04/21 02:10:22;;;;;;;4.82;3.05;;;8.90;99.30;;;;;;5033688;28;20490;-62
2023/04/21 02:12:48;;;;;;;4.00;2.65;;;8.90;99.60;;;;;;5037012;28;20039;-62
2023/04/21 02:15:13;;;;;;;4.75;2.92;;;8.90;99.70;;;;;;5024281;28;20553;-62
2023/04/21 02:17:41;;;;;;;6.50;2.90;;;8.90;99.70;;;;;;5048054;28;20467;-62
2023/04/21 02:20:08;;;;;;;4.78;2.72;;;8.90;99.60;;;;;;5035979;28;20036;-62
2023/04/21 02:22:33;;;;;;;8.05;3.10;;;8.90;99.60;;;;;;5033588;28;20543;-62
2023/04/21 02:24:59;;;;;;;6.28;2.90;;;8.90;99.80;;;;;;5029540;28;20056;-62
2023/04/21 02:27:24;;;;;;;4.95;2.95;;;8.90;99.70;;;;;;5044177;28;20036;-62
2023/04/21 02:29:50;;;;;;;3.63;2.70;;;8.90;99.80;;;;;;5034361;28;20431;-62
2023/04/21 02:32:16;;;;;;;6.20;2.78;;;8.90;99.80;;;;;;5021149;28;20065;-62
2023/04/21 02:34:41;;;;;;;8.02;2.80;;;8.90;99.70;;;;;;5026879;28;20034;-62
2023/04/21 02:37:07;;;;;;;6.13;3.08;;;8.90;99.70;;;;;;5040845;28;20036;-62
2023/04/21 02:39:32;;;;;;;6.60;2.83;;;9.00;99.60;;;;;;5032345;28;20092;-62
2023/04/21 02:41:58;;;;;;;4.28;2.75;;;9.00;99.40;;;;;;5039994;28;20048;-62
2023/04/21 02:44:24;;;;;;;4.63;2.40;;;9.00;99.40;;;;;;5037047;28;20503;-62
2023/04/21 02:46:49;;;;;;;5.25;2.83;;;9.00;99.40;;;;;;5046783;28;20100;-62
2023/04/21 02:49:15;;;;;;;7.88;2.70;;;9.00;99.30;;;;;;5037190;28;20038;-62
2023/04/21 02:51:41;;;;;;;3.63;2.72;;;9.00;99.30;;;;;;5042441;28;20036;-62
2023/04/21 02:54:06;;;;;;;3.97;2.70;;;9.00;99.40;;;;;;5037668;28;20503;-62
2023/04/21 02:56:33;;;;;;;3.83;2.88;;;9.00;99.40;;;;;;5040107;28;20059;-62
2023/04/21 02:58:59;;;;;;;7.43;3.20;;;9.00;99.40;;;;;;5031027;28;20026;-62
2023/04/21 03:01:25;;;;;;;3.63;2.72;;;9.00;99.50;;;;;;5045623;28;20032;-62
2023/04/21 03:03:50;;;;;;;3.35;2.80;;;9.00;99.50;;;;;;5033026;28;20667;-62
2023/04/21 03:06:16;;;;;;;3.97;2.63;;;9.00;99.60;;;;;;5032911;28;20030;-62
2023/04/21 03:08:42;;;;;;;5.75;2.92;;;9.00;99.70;;;;;;5039290;28;20025;-62
2023/04/21 03:11:08;;;;;;;6.90;2.78;;;9.00;99.70;;;;;;5032752;28;20068;-62
2023/04/21 03:13:34;;;;;;;4.85;2.70;;;9.00;99.60;;;;;;5037143;28;20040;-62
2023/04/21 03:15:59;;;;;;;6.40;2.90;;;9.00;99.80;;;;;;5039611;28;20055;-58
2023/04/21 03:18:25;;;;;;;5.65;2.85;;;9.00;99.80;;;;;;5040329;28;20068;-58
2023/04/21 03:20:51;;;;;;;5.13;2.90;;;9.00;99.80;;;;;;5034867;28;20033;-59
2023/04/21 03:23:16;;;;;;;4.38;2.75;;;9.00;99.90;;;;;;5035429;28;20038;-57
2023/04/21 03:25:42;;;;;;;6.47;2.88;;;9.00;99.90;;;;;;5033914;28;20029;-58
2023/04/21 03:28:08;;;;;;;4.68;2.92;;;9.00;99.90;;;;;;5037061;28;20029;-58
2023/04/21 03:30:34;;;;;;;5.10;2.83;;;9.00;99.90;;;;;;5032363;28;20033;-60
2023/04/21 03:32:59;;;;;;;6.32;3.08;;;9.00;99.90;;;;;;5030359;28;20104;-61
2023/04/21 03:35:26;;;;;;;4.75;2.95;;;9.00;99.90;;;;;;5037307;28;20464;-58
2023/04/21 03:37:51;;;;;;;4.68;2.60;;;9.00;99.90;;;;;;5030512;28;20025;-58
2023/04/21 03:40:17;;;;;;;5.00;2.78;;;8.90;99.90;;;;;;5030796;28;20044;-59
2023/04/21 03:42:42;;;;;;;4.78;2.95;;;8.90;99.90;;;;;;5041176;28;20037;-58
2023/04/21 03:45:09;;;;;;;4.05;3.10;;;9.00;99.90;;;;;;5035817;28;20471;-59
2023/04/21 03:47:35;;;;;;;6.38;3.20;;;9.00;99.90;;;;;;5043784;28;20519;-59
2023/04/21 03:50:05;;;;;;;8.57;3.42;;;9.00;99.90;;;;;;5036464;28;20091;-59
2023/04/21 03:52:32;;;;;;;5.05;2.75;;;9.00;99.90;;;;;;5035378;28;20579;-59
2023/04/21 03:54:57;;;;;;;5.93;2.90;;;9.00;99.90;;;;;;5038521;28;20038;-60
2023/04/21 03:57:23;;;;;;;5.75;3.05;;;9.00;99.90;;;;;;5034004;28;20025;-61
2023/04/21 03:59:49;;;;;;;7.28;3.67;;;8.90;99.90;;;;;;5035106;28;20031;-61
2023/04/21 04:02:14;;;;;;;6.00;2.80;;;9.00;99.90;;;;;;5037184;28;20038;-65
2023/04/21 04:04:40;;;;;;;4.28;2.67;;;9.00;99.90;;;;;;5023871;28;20108;-64
2023/04/21 04:07:07;;;;;;;6.40;3.20;;;9.00;99.90;;;;;;5035029;28;20080;-64
2023/04/21 04:09:33;;;;;;;5.05;2.90;;;9.00;99.90;;;;;;5042713;28;20116;-64
2023/04/21 04:11:58;;;;;;;4.75;3.00;;;9.00;99.90;;;;;;5035555;28;20112;-62
2023/04/21 04:14:24;;;;;;;5.78;2.83;;;9.00;99.90;;;;;;5031323;28;20055;-62
2023/04/21 04:16:50;;;;;;;2.97;2.67;;;9.00;99.90;;;;;;5028614;28;20405;-59
2023/04/21 04:19:15;;;;;;;3.47;2.72;;;9.00;99.90;;;;;;5037749;28;20034;-59
2023/04/21 04:21:41;;;;;;;5.65;2.95;;;9.00;99.90;;;;;;5036155;28;20037;-62
2023/04/21 04:24:07;;;;;;;3.55;2.78;;;9.10;99.90;;;;;;5030827;28;20064;-62
2023/04/21 04:26:34;;;;;;;6.55;3.25;;;9.00;99.90;;;;;;5036508;28;20022;-59
2023/04/21 04:29:01;;;;;;;6.70;3.25;;;9.10;99.90;;;;;;5025833;28;20075;-60
2023/04/21 04:31:29;;;;;;;8.30;3.00;;;9.10;99.90;;;;;;5031409;28;20031;-64
2023/04/21 04:33:55;;;;;;;5.53;2.80;;;9.10;99.90;;;;;;5026586;28;20451;-65
2023/04/21 04:36:21;;;;;;;3.65;2.63;;;9.10;99.90;;;;;;5030541;28;20092;-66
2023/04/21 04:38:47;;;;;;;5.45;2.80;;;9.10;99.90;;;;;;5024537;28;20057;-65
2023/04/21 04:41:14;;;;;;;4.50;2.65;;;9.10;99.90;;;;;;5031198;28;20049;-59
2023/04/21 04:43:40;;;;;;;5.07;2.85;;;9.20;99.90;;;;;;5027868;28;20529;-59
2023/04/21 04:46:08;;;;;;;5.70;2.97;;;9.20;99.90;;;;;;5034616;28;20521;-62
2023/04/21 04:48:34;;;;;;;5.22;3.05;;;9.20;99.90;;;;;;5029503;28;20108;-62
2023/04/21 04:51:00;;;;;;;5.85;2.90;;;9.20;99.90;;;;;;5029524;28;20487;-58
2023/04/21 04:53:27;;;;;;;5.32;3.17;;;9.20;99.90;;;;;;5034085;28;20058;-57
2023/04/21 04:55:53;;;;;;;4.10;2.58;;;9.20;99.90;;;;;;5031333;28;20033;-61
2023/04/21 04:58:19;;;;;;;3.15;2.58;;;9.30;99.90;;;;;;5034873;28;20056;-61
2023/04/21 05:00:45;;;;;;;3.50;2.70;;;9.30;99.90;;;;;;5030897;28;20036;-60
2023/04/21 05:03:11;;;;;;;3.63;2.50;;;9.30;99.90;;;;;;5029964;28;20034;-62
2023/04/21 05:05:36;;;;;;;8.70;3.20;;;9.30;99.90;;;;;;5029181;28;20071;-64
2023/04/21 05:08:02;;;;;;;4.85;2.70;;;9.30;99.90;;;;;;5041951;28;20037;-64
2023/04/21 05:10:28;;;;;;;6.50;2.70;;;9.30;99.80;;;;;;5027756;28;20079;-61
2023/04/21 05:12:53;;;;;;;4.63;2.58;;;9.30;99.60;;;;;;5027745;28;20040;-61
2023/04/21 05:15:19;;;;;;;6.25;2.70;;;9.40;99.40;;;;;;5024409;28;20166;-60
2023/04/21 05:17:45;;;;;;;3.65;2.50;;;9.40;99.10;;;;;;5039475;28;20400;-60
2023/04/21 05:20:11;;;;;;;4.05;2.67;;;9.40;99.00;;;;;;5039320;28;20034;-59
2023/04/21 05:22:37;;;;;;;6.47;2.90;;;9.50;99.10;;;;;;5032369;28;20049;-59
2023/04/21 05:25:04;;;;;;;3.58;2.90;;;9.50;98.90;;;;;;5017079;28;20060;-58
2023/04/21 05:27:29;;;;;;;4.38;2.50;;;9.50;98.90;;;;;;5033109;28;20126;-58
2023/04/21 05:29:55;;;;;;;4.82;2.60;;;9.50;98.70;;;;;;5029902;28;20083;-58
2023/04/21 05:32:21;;;;;;;6.15;2.92;;;9.40;98.80;;;;;;5027134;28;20044;-60
2023/04/21 05:34:46;;;;;;;5.20;2.72;;;9.50;98.70;;;;;;5025747;28;20034;-61
2023/04/21 05:37:12;;;;;;;6.65;3.13;;;9.50;98.70;;;;;;5030058;28;20033;-62
2023/04/21 05:39:38;;;;;;;6.15;2.47;;;9.50;98.60;;;;;;5030791;28;20070;-61
2023/04/21 05:42:04;;;;;;;3.78;2.70;;;9.50;98.50;;;;;;5031406;28;20056;-58
2023/04/21 05:44:29;;;;;;;5.97;3.13;;;9.50;98.50;;;;;;5034439;28;20048;-58
2023/04/21 05:46:55;;;;;;;6.78;3.03;;;9.50;98.50;;;;;;5030602;28;20051;-60
2023/04/21 05:49:21;;;;;;;5.22;2.80;;;9.50;98.40;;;;;;5029959;28;20040;-61
2023/04/21 05:51:46;;;;;;;3.60;2.88;;;9.50;98.30;;;;;;5026865;28;20065;-62
2023/04/21 05:54:12;;;;;;;4.18;2.40;;;9.50;98.20;;;;;;5030613;28;20037;-62
2023/04/21 05:56:38;;;;;;;7.72;2.97;;;9.50;98.10;;;;;;5034043;28;20029;-62
2023/04/21 05:59:05;;;;;;;8.02;2.88;;;9.50;98.20;;;;;;5036740;28;20037;-63
2023/04/21 06:01:31;;;;;;;7.32;3.10;;;9.50;98.10;;;;;;5033909;28;20040;-62
2023/04/21 06:03:57;;;;;;;5.13;3.10;;;9.50;97.90;;;;;;5038892;28;20041;-62
2023/04/21 06:06:25;;;;;;;4.57;2.72;;;9.50;98.00;;;;;;5031535;28;20033;-63
2023/04/21 06:08:50;;;;;;;4.30;2.70;;;9.50;98.00;;;;;;5039872;28;20010;-63
2023/04/21 06:11:16;;;;;;;4.15;2.45;;;9.50;98.10;;;;;;5020968;28;20040;-62
2023/04/21 06:13:42;;;;;;;4.40;2.80;;;9.50;98.20;;;;;;5029125;28;20029;-63
2023/04/21 06:16:07;;;;;;;3.42;2.88;;;9.50;98.20;;;;;;5029985;28;20048;-62
2023/04/21 06:18:33;;;;;;;4.13;2.67;;;9.50;98.40;;;;;;5030516;28;20029;-62
2023/04/21 06:20:58;;;;;;;4.13;2.90;;;9.50;98.30;;;;;;5027915;28;20025;-61
2023/04/21 06:23:24;;;;;;;4.10;2.50;;;9.50;98.30;;;;;;5028948;28;20491;-61
2023/04/21 06:26:05;;;;;;;3.45;2.70;;;9.50;98.20;;;;;;5024577;28;20092;-63
2023/04/21 06:28:32;;;;;;;5.30;2.92;;;9.60;98.10;;;;;;5026429;28;20041;-62
2023/04/21 06:30:59;;;;;;;6.53;3.00;;;9.60;98.30;;;;;;5027164;28;20640;-62
2023/04/21 06:33:25;;;;;;;5.40;2.83;;;9.60;98.20;;;;;;5025384;28;20044;-62
2023/04/21 06:35:51;;;;;;;5.40;2.83;;;9.50;98.10;;;;;;5026662;28;20480;-62
2023/04/21 06:38:17;;;;;;;5.35;2.67;;;9.60;98.30;;;;;;5028952;28;20022;-62
2023/04/21 06:40:43;;;;;;;5.35;3.30;;;9.60;98.30;;;;;;5027970;28;20064;-62
2023/04/21 06:43:08;;;;;;;3.25;2.40;;;9.60;98.40;;;;;;5032062;28;20029;-62
2023/04/21 06:45:34;;;;;;;4.93;2.90;;;9.60;98.70;;;;;;5029904;28;20036;-63
2023/04/21 06:48:00;;;;;;;4.35;2.58;;;9.60;98.80;;;;;;5026456;28;20294;-62
2023/04/21 06:50:25;;;;;;;3.33;2.60;;;9.50;98.70;;;;;;5031641;28;20034;-62
2023/04/21 06:52:51;;;;;;;4.70;2.72;;;9.60;98.90;;;;;;5038537;28;20029;-62
2023/04/21 06:55:17;;;;;;;4.75;2.60;;;9.60;99.00;;;;;;5026446;28;20536;-62
2023/04/21 06:57:42;;;;;;;2.92;2.65;;;9.60;99.00;;;;;;5031175;28;20037;-62
2023/04/21 07:00:09;;;;;;;2.85;2.50;;;9.60;98.90;;;;;;5026750;28;20404;-63
2023/04/21 07:02:34;;;;;;;6.00;3.15;;;9.60;99.10;;;;;;5030490;28;20045;-62
2023/04/21 07:05:00;;;;;;;7.70;2.78;;;9.60;99.30;;;;;;5028364;28;20033;-61
2023/04/21 07:07:26;;;;;;;7.18;2.70;;;9.60;99.20;;;;;;5025532;28;20131;-62
2023/04/21 07:09:51;;;;;;;4.72;2.50;;;9.60;99.30;;;;;;5015668;28;20030;-62
2023/04/21 07:12:17;;;;;;;4.95;2.47;;;9.60;99.40;;;;;;5014134;28;20094;-62
2023/04/21 07:14:43;;;;;;;3.90;2.60;;;9.70;99.50;;;;;;5022597;28;20029;-61
2023/04/21 07:17:08;;;;;;;5.65;2.80;;;9.70;99.50;;;;;;5020112;28;20025;-65
2023/04/21 07:19:34;;;;;;;3.17;2.58;;;9.70;99.50;;;;;;5026211;28;20041;-65
2023/04/21 07:22:00;;;;;;;4.38;2.72;;;9.70;99.60;;;;;;5016852;28;20095;-66
2023/04/21 07:24:25;;;;;;;3.75;2.80;;;9.70;99.80;;;;;;5021992;28;20479;-63
2023/04/21 07:26:51;;;;;;;5.97;3.00;;;9.70;99.50;;;;;;5020948;28;20033;-61
2023/04/21 07:29:16;;;;;;;4.75;2.65;;;9.70;99.40;;;;;;5009335;28;20029;-62
2023/04/21 07:31:42;;;;;;;3.30;2.70;;;9.70;99.70;;;;;;5005380;28;20042;-60
2023/04/21 07:34:08;;;;;;;3.38;2.70;;;9.70;99.40;;;;;;5008266;28;20037;-60
2023/04/21 07:36:33;;;;;;;5.18;3.20;;;9.70;99.60;;;;;;5015720;28;20175;-62
2023/04/21 07:38:59;;;;;;;3.08;2.53;;;9.70;99.70;;;;;;5006956;28;20071;-62
2023/04/21 07:41:25;;;;;;;4.18;2.60;;;9.70;99.90;;;;;;5011737;28;20140;-60
2023/04/21 07:43:50;;;;;;;6.55;2.95;;;9.70;99.90;;;;;;5018252;28;20068;-62
2023/04/21 07:46:16;;;;;;;3.85;2.67;;;9.70;99.90;;;;;;5015877;28;20061;-62
2023/04/21 07:48:42;;;;;;;3.65;2.70;;;9.70;99.90;;;;;;5021729;28;20108;-62
2023/04/21 07:51:07;;;;;;;5.22;2.85;;;9.70;99.90;;;;;;5027271;28;20191;-62
2023/04/21 07:53:33;;;;;;;3.65;2.80;;;9.70;99.90;;;;;;5015043;28;20041;-62
2023/04/21 07:55:59;;;;;;;6.00;2.50;;;9.70;99.90;;;;;;5017090;28;20486;-58
2023/04/21 07:58:25;;;;;;;5.32;3.05;;;9.80;99.90;;;;;;5018345;28;20486;-61
2023/04/21 08:00:50;;;;;;;5.43;2.90;;;9.80;99.90;;;;;;5010200;28;20029;-61
2023/04/21 08:03:16;;;;;;;4.60;2.67;;;9.80;99.90;;;;;;5016333;28;20383;-62
2023/04/21 08:05:41;;;;;;;4.00;2.95;;;9.80;99.90;;;;;;5008527;28;20037;-61
2023/04/21 08:08:07;;;;;;;4.00;2.80;;;9.80;99.90;;;;;;5018355;28;20998;-60
2023/04/21 08:10:33;;;;;;;5.70;3.05;;;9.90;99.90;;;;;;5017097;28;20097;-61
2023/04/21 08:12:59;;;;;;;4.90;3.10;;;9.90;99.90;;;;;;5011218;28;20034;-61
2023/04/21 08:15:25;;;;;;;3.35;2.60;;;9.90;99.90;;;;;;5015224;28;20060;-61
2023/04/21 08:17:51;;;;;;;6.03;2.60;;;9.90;99.90;;;;;;5011209;28;20067;-62
2023/04/21 08:20:16;;;;;;;2.92;2.50;;;9.90;99.90;;;;;;5014393;28;20431;-60
2023/04/21 08:22:42;;;;;;;5.38;2.72;;;9.90;99.90;;;;;;5020312;28;20091;-60
2023/04/21 08:25:08;;;;;;;3.92;2.90;;;10.00;99.90;;;;;;5014807;28;20033;-63
2023/04/21 08:27:37;;;;;;;5.82;2.72;;;10.00;99.90;;;;;;5026548;28;20041;-58
2023/04/21 08:30:04;;;;;;;3.47;2.60;;;10.10;99.90;;;;;;5015545;28;20056;-61
2023/04/21 08:32:30;;;;;;;3.28;2.42;;;10.10;99.90;;;;;;5010488;28;20551;-57
2023/04/21 08:34:55;;;;;;;4.35;2.53;;;10.10;99.90;;;;;;5009456;28;20037;-58
2023/04/21 08:37:21;;;;;;;4.90;2.78;;;10.20;99.80;;;;;;5012847;28;20033;-60
2023/04/21 08:39:52;;;;;;;5.15;2.58;;;10.20;99.90;;;;;;5013833;28;20078;-61
2023/04/21 08:42:18;;;;;;;4.43;2.50;;;10.30;99.90;;;;;;5014487;28;20041;-63
2023/04/21 08:44:46;;;;;;;3.78;2.78;;;10.30;99.80;;;;;;5016948;28;20048;-67
2023/04/21 08:47:13;;;;;;;5.10;2.60;;;10.30;99.40;;;;;;5015314;28;20033;-68
2023/04/21 08:49:41;;;;;;;2.83;2.50;;;10.30;99.40;;;;;;5019658;28;20124;-67
2023/04/21 08:52:07;;;;;;;2.38;2.17;;;10.30;99.30;;;;;;5005372;28;20042;-64
2023/04/21 08:54:35;;;;;;;3.88;2.53;;;10.30;99.30;;;;;;5007963;28;20064;-64
2023/04/21 08:57:02;;;;;;;3.58;2.40;;;10.40;99.20;;;;;;5012547;28;20025;-62
2023/04/21 08:59:28;;;;;;;3.97;2.33;;;10.30;98.90;;;;;;5007347;28;20819;-64
2023/04/21 09:02:17;;;;;;;3.00;2.30;;;10.40;98.90;;;;;;5004679;28;20041;-66
2023/04/21 09:04:45;;;;;;;3.22;2.42;;;10.40;98.50;;;;;;5004747;28;20033;-65
2023/04/21 09:07:28;;;;;;;4.63;2.70;;;10.40;98.80;;;;;;5011790;28;20029;-60
2023/04/21 09:09:55;;;;;;;3.85;2.72;;;10.40;99.00;;;;;;5014447;28;20055;-61
2023/04/21 09:12:21;;;;;;;2.67;2.33;;;10.40;98.80;;;;;;5006609;28;20579;-64
2023/04/21 09:14:47;;;;;;;2.75;2.42;;;10.40;98.70;;;;;;5007125;28;20033;-64
2023/04/21 09:17:15;;;;;;;5.18;2.70;;;10.40;98.50;;;;;;5002342;28;20471;-62
2023/04/21 09:19:41;;;;;;;4.13;2.70;;;10.40;98.50;;;;;;4999531;28;21308;-65
2023/04/21 09:22:07;;;;;;;3.38;2.45;;;10.50;98.40;;;;;;5009046;28;20041;-63
2023/04/21 09:24:33;;;;;;;5.43;2.60;;;10.40;98.20;;;;;;5009516;28;20103;-63
2023/04/21 09:27:02;;;;;;;3.03;2.45;;;10.50;98.10;;;;;;5017151;28;20546;-62
2023/04/21 09:29:28;;;;;;;3.63;2.58;;;10.50;97.90;;;;;;5013086;28;20577;-61
2023/04/21 09:31:54;;;;;;;3.38;2.40;;;10.50;97.70;;;;;;5015824;28;20144;-63
2023/04/21 09:34:24;;;;;;;2.90;2.22;;;10.50;97.30;;;;;;5018973;28;20779;-63
2023/04/21 09:37:00;;;;;;;2.90;2.40;;;10.60;97.20;;;;;;5011549;28;20036;-65
2023/04/21 09:39:28;;;;;;;5.95;2.45;;;10.60;97.10;;;;;;5014708;28;20626;-65
2023/04/21 09:41:54;;;;;;;3.22;2.45;;;10.60;97.00;;;;;;5009550;28;20484;-62
2023/04/21 09:44:20;;;;;;;3.65;2.25;;;10.60;97.00;;;;;;5014510;28;20099;-66
2023/04/21 09:46:49;;;;;;;3.05;2.13;;;10.60;96.40;;;;;;5014130;28;20060;-68
2023/04/21 09:49:16;;;;;;;3.65;2.67;;;10.70;96.20;;;;;;5014104;28;20148;-63
2023/04/21 09:51:42;;;;;;;2.38;2.17;;;10.60;96.00;;;;;;5003294;28;20524;-62
2023/04/21 09:54:15;;;;;;;4.20;2.38;;;10.70;96.10;;;;;;5013835;28;20632;-62
2023/04/21 09:56:43;;;;;;;3.05;2.40;;;10.70;95.80;;;;;;5011468;28;20605;-64
2023/04/21 09:59:16;;;;;;;3.30;2.30;;;10.70;95.80;;;;;;5011846;28;20053;-65
2023/04/21 10:01:44;;;;;;;3.05;2.40;;;10.70;95.90;;;;;;5003737;28;20033;-63
2023/04/21 10:04:10;;;;;;;3.17;2.35;;;10.70;95.90;;;;;;5011290;28;20034;-63
2023/04/21 10:06:35;;;;;;;3.00;2.17;;;10.60;95.70;;;;;;5006774;28;20037;-61
2023/04/21 10:09:05;;;;;;;2.53;2.05;;;10.70;95.70;;;;;;5008430;28;20034;-62
2023/04/21 10:11:33;;;;;;;2.58;1.95;;;10.70;95.70;;;;;;5010112;28;20033;-61
2023/04/21 10:13:59;;;;;;;6.40;2.85;;;10.70;95.70;;;;;;5004807;28;20034;-61
2023/04/21 10:16:25;;;;;;;2.10;2.00;;;10.60;95.80;;;;;;5015725;28;20599;-61
2023/04/21 10:18:51;;;;;;;2.08;1.98;;;10.60;95.90;;;;;;5015277;28;20103;-63
2023/04/21 10:21:20;;;;;;;2.97;2.38;;;10.60;96.10;;;;;;5008320;28;20033;-62
2023/04/21 10:23:52;;;;;;;4.47;2.20;;;10.60;96.20;;;;;;5014481;28;20531;-62
2023/04/21 10:26:24;;;;;;;2.58;2.10;;;10.60;96.40;;;;;;5011904;28;20056;-61
2023/04/21 10:28:55;;;;;;;3.95;2.40;;;10.60;96.40;;;;;;5020904;28;20033;-61
2023/04/21 10:31:31;;;;;;;;;;;10.60;96.50;;;;;;5014443;28;20128;-61
2023/04/21 10:34:06;;;;;;;2.40;1.95;;;10.60;96.90;;;;;;5018337;28;20043;-61
2023/04/21 10:36:44;;;;;;;2.25;2.05;;;10.60;96.90;;;;;;5011496;28;20144;-61
2023/04/21 10:39:12;;;;;;;2.25;1.90;;;10.60;97.20;;;;;;5012668;28;20443;-59
2023/04/21 10:41:38;;;;;;;3.47;2.10;;;10.60;97.40;;;;;;5011465;28;20075;-60
2023/04/21 10:44:14;;;;;;;3.78;2.40;;;10.60;97.60;;;;;;5015335;28;20067;-61
2023/04/21 10:46:45;;;;;;;5.05;2.22;;;10.60;97.70;;;;;;5006543;28;20044;-59
2023/04/21 10:49:23;;;;;;;2.53;2.00;;;10.60;98.00;;;;;;5013693;28;20711;-62
2023/04/21 10:52:04;;;;;;;3.38;2.13;;;10.60;98.30;;;;;;5016229;28;20041;-62
2023/04/21 10:54:45;;;;;;;3.03;2.42;;;10.60;97.90;;;;;;5012453;28;20407;-62
2023/04/21 10:57:16;;;;;;;3.15;2.25;;;10.60;97.80;;;;;;5007168;28;20036;-62
2023/04/21 10:59:43;;;;;;;2.55;2.05;;;10.60;97.90;;;;;;5006311;28;20119;-61
2023/04/21 11:02:14;;;;;;;2.65;2.28;;;10.60;98.00;;;;;;5008043;28;20041;-62
2023/04/21 11:04:43;;;;;;;2.60;2.40;;;10.60;98.00;;;;;;5003992;28;20037;-60
2023/04/21 11:07:17;;;;;;;2.80;2.25;;;10.60;98.10;;;;;;5016163;28;20033;-62
2023/04/21 11:09:44;;;;;;;2.25;2.03;;;10.60;97.90;;;;;;5014935;28;20026;-61
2023/04/21 11:12:12;;;;;;;2.33;2.10;;;10.60;98.20;;;;;;5000745;28;20048;-61
2023/04/21 11:14:48;;;;;;;2.85;1.98;;;10.60;98.20;;;;;;5008823;28;20026;-61
2023/04/21 11:17:18;;;;;;;4.78;2.30;;;10.60;98.30;;;;;;5000959;28;20103;-62
2023/04/21 11:19:50;;;;;;;2.63;2.00;;;10.60;98.20;;;;;;5016663;28;20033;-61
2023/04/21 11:22:16;;;;;;;2.90;2.13;;;10.60;98.30;;;;;;5014561;28;20065;-61
2023/04/21 11:24:49;;;;;;;2.22;2.03;;;10.60;98.20;;;;;;5018299;28;20041;-61
2023/04/21 11:27:16;;;;;;;2.65;2.40;;;10.70;98.10;;;;;;5018932;28;20068;-62
2023/04/21 11:29:48;;;;;;;2.05;1.90;;;10.70;98.10;;;;;;5023163;28;20025;-61
2023/04/21 11:32:15;;;;;;;4.47;2.17;;;10.70;98.20;;;;;;5012923;28;20126;-61
2023/04/21 11:34:41;;;;;;;2.55;1.92;;;10.70;98.40;;;;;;5008514;28;20558;-62
2023/04/21 11:37:08;;;;;;;3.78;2.30;;;10.70;98.60;;;;;;5016841;28;20112;-61
2023/04/21 11:39:43;;;;;;;4.72;2.15;;;10.70;98.30;;;;;;5008635;28;20488;-62
2023/04/21 11:42:10;;;;;;;2.92;2.00;;;10.70;98.00;;;;;;5018050;28;20484;-62
2023/04/21 11:44:42;;;;;;;2.90;2.10;;;10.70;97.70;;;;;;5015312;28;20041;-61
2023/04/21 11:47:25;;;;;;;2.05;1.90;;;10.80;97.20;;;;;;5014885;28;20041;-61
2023/04/21 11:49:55;;;;;;;3.08;1.90;;;10.80;96.80;;;;;;5011015;28;20061;-64
2023/04/21 11:52:32;;;;;;;3.07;2.20;;;10.80;96.60;;;;;;5020508;28;20082;-61
2023/04/21 11:54:59;;;;;;;2.50;2.00;;;10.80;96.30;;;;;;5017290;28;20044;-61
2023/04/21 11:57:27;;;;;;;2.40;1.95;;;10.90;96.20;;;;;;5014463;28;20029;-63
2023/04/21 11:59:52;;;;;;;1.65;1.55;;;10.90;96.10;;;;;;5020233;28;20030;-63
2023/04/21 12:02:24;;;;;;;2.38;1.83;;;10.90;96.00;;;;;;5004191;28;20150;-63
2023/04/21 12:05:16;;;;;;;;;;;10.90;95.80;;;;;;5015121;28;20708;-64
2023/04/21 12:07:44;;;;;;;2.55;1.88;;;10.90;95.50;;;;;;5014819;28;20319;-58
2023/04/21 12:10:20;;;;;;;2.25;1.98;;;10.90;95.60;;;;;;5006905;28;20033;-59
2023/04/21 12:12:46;;;;;;;2.35;2.15;;;10.90;95.30;;;;;;5012571;28;20037;-59
2023/04/21 12:15:18;;;;;;;2.25;2.00;;;10.90;95.40;;;;;;5001747;28;21273;-57
2023/04/21 12:17:46;;;;;;;3.17;2.53;;;10.90;95.40;;;;;;5007013;28;20037;-59
2023/04/21 12:20:14;;;;;;;2.38;1.98;;;10.80;95.30;;;;;;5018078;28;20028;-56
2023/04/21 12:22:40;;;;;;;2.47;2.08;;;10.80;95.40;;;;;;5010112;28;20050;-56
2023/04/21 12:25:05;;;;;;;2.30;2.10;;;10.80;95.50;;;;;;5008667;28;20060;-58
2023/04/21 12:27:31;;;;;;;2.30;2.10;;;10.80;95.70;;;;;;5011424;28;20033;-62
2023/04/21 12:29:57;;;;;;;5.55;2.40;;;10.80;95.70;;;;;;5009481;28;20035;-62
2023/04/21 12:32:23;;;;;;;3.97;2.10;;;10.90;95.70;;;;;;5011051;28;20048;-61
2023/04/21 12:34:49;;;;;;;2.75;2.22;;;10.90;95.60;;;;;;5009876;28;20269;-61
2023/04/21 12:37:15;;;;;;;2.50;2.30;;;10.90;95.60;;;;;;5015542;28;20068;-62
2023/04/21 12:39:40;;;;;;;3.45;2.40;;;10.90;95.70;;;;;;5009042;28;20084;-62
2023/04/21 12:42:06;;;;;;;3.80;2.10;;;10.90;95.60;;;;;;5015583;28;20049;-61
2023/04/21 12:44:32;;;;;;;5.07;2.20;;;10.90;95.40;;;;;;5016870;28;20119;-64
2023/04/21 12:46:57;;;;;;;2.85;2.13;;;10.80;95.10;;;;;;5003037;28;20914;-62
2023/04/21 12:49:24;;;;;;;2.30;2.10;;;10.80;95.30;;;;;;5009404;28;20083;-64
2023/04/21 12:51:50;;;;;;;2.80;2.20;;;10.90;95.60;;;;;;5013735;28;20056;-62